createdAt,value
2023-05-19T00:02:09.340Z,3.45
2023-05-19T00:04:37.091Z,2.78
2023-05-19T00:07:05.573Z,3.38
2023-05-19T00:09:34.556Z,3.20
2023-05-19T00:12:01.162Z,3.60
2023-05-19T00:14:29.058Z,3.35
2023-05-19T00:16:58.519Z,2.92
2023-05-19T00:19:25.573Z,3.55
2023-05-19T00:21:52.147Z,2.83
2023-05-19T00:24:18.773Z,3.00
2023-05-19T00:26:45.373Z,3.03
2023-05-19T00:29:11.880Z,2.80
2023-05-19T00:31:38.477Z,3.03
2023-05-19T00:34:05.077Z,3.25
2023-05-19T00:36:31.790Z,3.03
2023-05-19T00:38:58.241Z,3.40
2023-05-19T00:41:24.995Z,3.30
2023-05-19T00:43:51.647Z,3.58
2023-05-19T00:46:19.368Z,3.00
2023-05-19T00:48:45.980Z,3.58
2023-05-19T00:51:16.927Z,2.63
2023-05-19T00:53:50.356Z,3.40
2023-05-19T00:56:18.234Z,4.43
2023-05-19T00:58:45.502Z,3.22
2023-05-19T01:01:16.685Z,2.85
2023-05-19T01:03:44.282Z,4.07
2023-05-19T01:06:12.349Z,3.33
2023-05-19T01:08:39.402Z,3.28
2023-05-19T01:11:07.945Z,3.10
2023-05-19T01:13:35.698Z,3.50
2023-05-19T01:16:37.462Z,3.40
2023-05-19T01:19:24.439Z,3.67
2023-05-19T01:22:06.916Z,3.55
2023-05-19T01:24:58.903Z,3.72
2023-05-19T01:27:47.017Z,3.40
2023-05-19T01:30:29.368Z,4.85
2023-05-19T01:33:01.648Z,3.75
2023-05-19T01:35:29.224Z,3.80
2023-05-19T01:37:58.532Z,3.72
2023-05-19T01:40:26.538Z,3.20
2023-05-19T01:42:57.566Z,3.60
2023-05-19T01:45:25.698Z,3.25
2023-05-19T01:47:55.503Z,4.20
2023-05-19T01:50:22.541Z,3.90
2023-05-19T01:52:49.489Z,3.80
2023-05-19T01:55:16.079Z,4.47
2023-05-19T01:58:06.819Z,3.83
2023-05-19T02:01:03.271Z,3.95
2023-05-19T02:03:45.994Z,3.15
2023-05-19T02:06:22.927Z,4.25
2023-05-19T02:08:58.636Z,4.50
2023-05-19T02:11:46.488Z,4.18
2023-05-19T02:14:23.872Z,5.47
2023-05-19T02:16:50.830Z,4.22
2023-05-19T02:19:37.227Z,3.97
2023-05-19T02:22:03.862Z,4.03
2023-05-19T02:24:30.401Z,4.25
2023-05-19T02:26:56.919Z,4.03
2023-05-19T02:29:23.549Z,4.22
2023-05-19T02:31:50.229Z,4.20
2023-05-19T02:34:21.023Z,4.35
2023-05-19T02:36:49.777Z,5.05
2023-05-19T02:39:16.508Z,4.00
2023-05-19T02:41:42.944Z,4.07
2023-05-19T02:44:09.474Z,4.32
2023-05-19T02:46:36.262Z,5.30
2023-05-19T02:49:02.926Z,4.20
2023-05-19T02:51:29.442Z,5.72
2023-05-19T02:53:56.036Z,4.78
2023-05-19T02:56:26.419Z,4.60
2023-05-19T02:58:53.067Z,4.68
2023-05-19T03:01:21.334Z,4.45
2023-05-19T03:03:47.945Z,5.03
2023-05-19T03:06:15.663Z,5.15
2023-05-19T03:08:42.498Z,4.78
2023-05-19T03:11:09.175Z,4.75
2023-05-19T03:13:35.738Z,4.50
2023-05-19T03:16:03.421Z,5.38
2023-05-19T03:18:29.914Z,5.35
2023-05-19T03:20:56.579Z,4.95
2023-05-19T03:23:23.217Z,4.90
2023-05-19T03:25:49.736Z,4.38
2023-05-19T03:28:17.160Z,5.07
2023-05-19T03:30:43.655Z,5.20
2023-05-19T03:33:10.308Z,4.43
2023-05-19T03:35:36.956Z,5.60
2023-05-19T03:38:03.491Z,5.88
2023-05-19T03:40:37.222Z,4.95
2023-05-19T03:43:03.769Z,5.45
2023-05-19T03:45:30.362Z,5.57
2023-05-19T03:47:56.971Z,6.55
2023-05-19T03:50:23.475Z,5.28
2023-05-19T03:52:50.016Z,5.63
2023-05-19T03:55:16.740Z,5.13
2023-05-19T03:57:46.810Z,5.18
2023-05-19T04:00:13.758Z,5.20
2023-05-19T04:02:45.785Z,6.50
2023-05-19T04:05:12.259Z,5.40
2023-05-19T04:07:38.828Z,6.43
2023-05-19T04:10:06.066Z,5.57
2023-05-19T04:12:33.055Z,5.68
2023-05-19T04:14:59.775Z,5.43
2023-05-19T04:17:26.688Z,5.43
2023-05-19T04:19:53.837Z,5.72
2023-05-19T04:22:20.977Z,5.40
2023-05-19T04:24:51.013Z,5.32
2023-05-19T04:27:18.155Z,6.18
2023-05-19T04:29:46.052Z,5.72
2023-05-19T04:32:17.654Z,5.90
2023-05-19T04:34:47.265Z,6.00
2023-05-19T04:37:16.570Z,5.93
2023-05-19T04:39:45.117Z,5.40
2023-05-19T04:42:11.807Z,5.95
2023-05-19T04:44:40.214Z,6.88
2023-05-19T04:47:10.538Z,5.60
2023-05-19T04:49:39.828Z,7.68
2023-05-19T04:52:10.361Z,6.15
2023-05-19T04:54:37.897Z,5.68
2023-05-19T04:57:04.815Z,5.07
2023-05-19T04:59:31.476Z,6.10
2023-05-19T05:01:58.119Z,4.93
2023-05-19T05:04:25.213Z,6.18
2023-05-19T05:06:51.901Z,6.75
2023-05-19T05:09:21.288Z,6.32
2023-05-19T05:11:51.738Z,7.25
2023-05-19T05:14:19.268Z,6.78
2023-05-19T05:16:46.464Z,8.40
2023-05-19T05:19:13.417Z,8.10
2023-05-19T05:21:41.608Z,7.90
2023-05-19T05:24:09.282Z,8.65
2023-05-19T05:26:36.034Z,8.48
2023-05-19T05:29:03.727Z,8.48
2023-05-19T05:31:30.218Z,10.05
2023-05-19T05:33:56.804Z,9.10
2023-05-19T05:36:23.253Z,8.65
2023-05-19T05:38:52.663Z,7.88
2023-05-19T05:41:20.251Z,8.93
2023-05-19T05:43:46.740Z,8.20
2023-05-19T05:46:20.759Z,9.45
2023-05-19T05:48:47.475Z,7.43
2023-05-19T05:51:14.451Z,7.70
2023-05-19T05:53:44.761Z,7.55
2023-05-19T05:56:11.979Z,8.73
2023-05-19T05:58:40.577Z,7.03
2023-05-19T06:01:11.049Z,7.00
2023-05-19T06:03:41.994Z,7.00
2023-05-19T06:06:10.637Z,6.40
2023-05-19T06:08:37.166Z,6.00
2023-05-19T06:11:08.984Z,7.88
2023-05-19T06:16:06.231Z,5.45
2023-05-19T06:18:32.857Z,6.00
2023-05-19T06:20:59.392Z,6.40
2023-05-19T06:23:26.982Z,6.30
2023-05-19T06:25:53.454Z,6.30
2023-05-19T06:28:19.905Z,6.22
2023-05-19T06:30:46.418Z,6.63
2023-05-19T06:33:13.093Z,4.95
2023-05-19T06:35:39.578Z,4.32
2023-05-19T06:38:06.029Z,6.15
2023-05-19T06:40:32.794Z,5.68
2023-05-19T06:42:59.357Z,5.22
2023-05-19T06:45:26.012Z,5.43
2023-05-19T06:47:52.828Z,5.13
2023-05-19T06:50:19.304Z,5.25
2023-05-19T06:52:47.093Z,5.13
2023-05-19T06:55:13.538Z,5.43
2023-05-19T06:57:40.047Z,5.28
2023-05-19T07:00:10.297Z,5.22
2023-05-19T07:02:36.883Z,5.15
2023-05-19T07:05:03.931Z,4.22
2023-05-19T07:07:30.408Z,5.20
2023-05-19T07:09:57.032Z,4.35
2023-05-19T07:12:23.458Z,4.97
2023-05-19T07:14:49.893Z,4.10
2023-05-19T07:17:16.751Z,4.63
2023-05-19T07:19:43.233Z,4.03
2023-05-19T07:22:09.735Z,5.38
2023-05-19T07:24:39.130Z,4.57
2023-05-19T07:27:09.775Z,4.25
2023-05-19T07:29:36.618Z,4.53
2023-05-19T07:32:12.760Z,4.00
2023-05-19T07:34:40.539Z,5.10
2023-05-19T07:37:09.622Z,4.88
2023-05-19T07:39:36.432Z,3.75
2023-05-19T07:42:03.210Z,3.90
2023-05-19T07:44:31.373Z,3.78
2023-05-19T07:46:57.911Z,4.05
2023-05-19T07:49:24.446Z,3.47
2023-05-19T07:51:50.935Z,3.55
2023-05-19T07:54:17.485Z,4.28
2023-05-19T07:56:53.104Z,4.32
2023-05-19T07:59:19.610Z,4.47
2023-05-19T08:01:46.239Z,3.92
2023-05-19T08:04:13.444Z,3.60
2023-05-19T08:06:40.182Z,2.72
2023-05-19T08:09:07.770Z,2.75
2023-05-19T08:11:34.375Z,3.28
2023-05-19T08:14:00.959Z,7.10
2023-05-19T08:16:27.696Z,4.28
2023-05-19T08:18:56.502Z,4.30
2023-05-19T08:21:23.065Z,3.28
2023-05-19T08:23:49.572Z,3.40
2023-05-19T08:26:16.335Z,3.72
2023-05-19T08:28:44.153Z,3.72
2023-05-19T08:31:10.876Z,3.40
2023-05-19T08:33:37.414Z,2.40
2023-05-19T08:36:04.437Z,3.20
2023-05-19T08:38:33.592Z,2.95
2023-05-19T08:41:00.055Z,2.45
2023-05-19T08:43:26.537Z,2.55
2023-05-19T08:45:54.160Z,3.00
2023-05-19T08:48:22.184Z,2.97
2023-05-19T08:51:14.483Z,2.25
2023-05-19T08:53:45.897Z,2.08
2023-05-19T08:56:16.544Z,2.22
2023-05-19T08:58:44.754Z,2.60
2023-05-19T09:01:17.617Z,2.17
2023-05-19T09:03:49.730Z,2.60
2023-05-19T09:06:16.992Z,3.42
2023-05-19T09:08:44.263Z,2.40
2023-05-19T09:11:11.874Z,2.92
2023-05-19T09:13:39.122Z,3.50
2023-05-19T09:16:06.290Z,3.10
2023-05-19T09:18:32.856Z,3.25
2023-05-19T09:21:07.519Z,2.97
2023-05-19T09:23:34.180Z,2.55
2023-05-19T09:26:09.889Z,3.22
2023-05-19T09:28:38.266Z,2.70
2023-05-19T09:31:09.748Z,2.83
2023-05-19T09:36:06.189Z,2.53
2023-05-19T09:38:33.032Z,2.85
2023-05-19T09:41:01.052Z,3.03
2023-05-19T09:43:29.276Z,2.47
2023-05-19T09:46:16.113Z,3.33
2023-05-19T09:48:45.900Z,2.38
2023-05-19T09:51:12.444Z,2.40
2023-05-19T09:53:40.660Z,2.85
2023-05-19T09:56:08.789Z,2.35
2023-05-19T09:58:36.541Z,2.45
2023-05-19T10:01:04.280Z,2.83
2023-05-19T10:03:34.733Z,2.38
2023-05-19T10:06:04.320Z,2.47
2023-05-19T10:08:31.833Z,2.67
2023-05-19T10:11:01.648Z,2.20
2023-05-19T10:13:29.659Z,2.92
2023-05-19T10:15:59.738Z,3.20
2023-05-19T10:18:29.212Z,2.28
2023-05-19T10:20:57.742Z,2.20
2023-05-19T10:23:27.306Z,2.35
2023-05-19T10:25:58.274Z,2.53
2023-05-19T10:28:31.580Z,2.97
2023-05-19T10:31:04.678Z,2.30
2023-05-19T10:34:09.287Z,2.25
2023-05-19T10:36:47.672Z,2.80
2023-05-19T10:39:29.681Z,2.65
2023-05-19T10:42:41.318Z,2.38
2023-05-19T10:45:27.683Z,2.50
2023-05-19T10:47:54.754Z,2.60
2023-05-19T10:50:24.382Z,3.50
2023-05-19T10:52:56.421Z,2.22
2023-05-19T10:55:45.965Z,2.53
2023-05-19T10:58:12.498Z,2.28
2023-05-19T11:00:39.786Z,2.30
2023-05-19T11:03:16.703Z,3.00
2023-05-19T11:05:45.646Z,2.80
2023-05-19T11:08:32.205Z,2.08
2023-05-19T11:11:13.380Z,2.85
2023-05-19T11:13:42.960Z,3.17
2023-05-19T11:16:10.199Z,3.10
2023-05-19T11:18:38.372Z,2.75
2023-05-19T11:21:05.312Z,2.60
2023-05-19T11:23:38.211Z,2.58
2023-05-19T11:26:07.640Z,3.35
2023-05-19T11:28:34.196Z,2.40
2023-05-19T11:31:02.181Z,3.40
2023-05-19T11:33:28.776Z,3.15
2023-05-19T11:35:59.239Z,2.85
2023-05-19T11:38:28.056Z,2.27
2023-05-19T11:40:54.994Z,3.65
2023-05-19T11:43:25.034Z,2.60
2023-05-19T11:45:51.828Z,2.72
2023-05-19T11:48:24.702Z,2.53
2023-05-19T11:50:51.530Z,3.03
2023-05-19T11:53:19.595Z,2.83
2023-05-19T11:55:47.493Z,3.42
2023-05-19T11:58:17.612Z,3.70
2023-05-19T12:00:47.331Z,2.55
2023-05-19T12:03:14.044Z,2.95
2023-05-19T12:05:47.348Z,2.75
2023-05-19T12:08:16.169Z,2.85
2023-05-19T12:10:42.667Z,3.13
2023-05-19T12:13:09.963Z,2.63
2023-05-19T12:15:37.479Z,2.65
2023-05-19T12:18:04.261Z,3.13
2023-05-19T12:20:39.265Z,2.45
2023-05-19T12:23:05.941Z,2.95
2023-05-19T12:25:34.070Z,2.50
2023-05-19T12:28:05.356Z,3.45
2023-05-19T12:30:33.655Z,2.70
2023-05-19T12:33:02.379Z,2.50
2023-05-19T12:35:33.827Z,3.13
2023-05-19T12:38:11.375Z,3.00
2023-05-19T12:40:42.453Z,2.65
2023-05-19T12:43:19.111Z,2.80
2023-05-19T12:45:45.866Z,2.80
2023-05-19T12:48:12.699Z,2.50
2023-05-19T12:50:40.647Z,3.50
2023-05-19T12:53:14.191Z,2.60
2023-05-19T12:55:45.002Z,2.65
2023-05-19T12:58:12.632Z,2.95
2023-05-19T13:00:45.391Z,3.00
2023-05-19T13:03:20.202Z,2.70
2023-05-19T13:05:48.951Z,2.50
2023-05-19T13:08:20.470Z,2.63
2023-05-19T13:10:47.651Z,2.38
2023-05-19T13:13:16.690Z,2.72
2023-05-19T13:15:52.145Z,2.33
2023-05-19T13:18:18.814Z,2.88
2023-05-19T13:20:46.997Z,2.78
2023-05-19T13:23:14.263Z,2.58
2023-05-19T13:25:41.587Z,3.10
2023-05-19T13:28:08.577Z,2.83
2023-05-19T13:30:38.201Z,2.40
2023-05-19T13:33:05.491Z,2.35
2023-05-19T13:35:37.003Z,3.05
2023-05-19T13:38:05.544Z,2.70
2023-05-19T13:40:35.468Z,2.72
2023-05-19T13:43:02.974Z,2.75
2023-05-19T13:45:29.523Z,2.70
2023-05-19T13:47:56.588Z,2.80
2023-05-19T13:50:23.298Z,2.20
2023-05-19T13:52:53.281Z,2.80
2023-05-19T13:55:19.875Z,3.10
2023-05-19T13:57:46.291Z,2.67
2023-05-19T14:00:13.320Z,3.05
2023-05-19T14:02:40.595Z,2.53
2023-05-19T14:05:08.692Z,2.30
2023-05-19T14:07:35.848Z,2.50
2023-05-19T14:10:05.341Z,2.25
2023-05-19T14:12:41.535Z,2.58
2023-05-19T14:15:18.742Z,2.22
2023-05-19T14:17:45.450Z,2.50
2023-05-19T14:20:12.480Z,2.22
2023-05-19T14:22:38.925Z,1.85
2023-05-19T14:25:06.031Z,2.95
2023-05-19T14:27:32.682Z,2.80
2023-05-19T14:29:59.129Z,2.63
2023-05-19T14:32:27.923Z,2.45
2023-05-19T14:34:58.628Z,2.53
2023-05-19T14:37:28.744Z,1.80
2023-05-19T14:39:55.601Z,3.38
2023-05-19T14:42:22.048Z,2.00
2023-05-19T14:44:48.475Z,2.13
2023-05-19T14:47:15.068Z,2.35
2023-05-19T14:49:41.621Z,1.83
2023-05-19T14:52:10.765Z,2.47
2023-05-19T14:54:37.219Z,2.17
2023-05-19T14:57:04.454Z,2.10
2023-05-19T14:59:37.429Z,2.47
2023-05-19T15:02:04.658Z,2.45
2023-05-19T15:04:33.732Z,1.75
2023-05-19T15:09:29.673Z,2.83
2023-05-19T15:11:56.124Z,2.08
2023-05-19T15:14:22.662Z,1.58
2023-05-19T15:16:50.574Z,2.13
2023-05-19T15:19:17.120Z,2.08
2023-05-19T15:21:45.569Z,1.45
2023-05-19T15:24:13.185Z,2.03
2023-05-19T15:26:39.719Z,2.33
2023-05-19T15:29:06.174Z,2.17
2023-05-19T15:31:37.997Z,3.00
2023-05-19T15:34:04.878Z,2.58
2023-05-19T15:36:32.823Z,2.25
2023-05-19T15:38:59.442Z,2.08
2023-05-19T15:41:28.977Z,1.92
2023-05-19T15:43:55.735Z,2.05
2023-05-19T15:46:22.696Z,2.38
2023-05-19T15:48:49.175Z,2.45
2023-05-19T15:51:15.912Z,2.30
2023-05-19T15:53:44.062Z,2.13
2023-05-19T15:56:10.749Z,2.25
2023-05-19T15:58:37.276Z,2.25
2023-05-19T16:01:03.809Z,2.15
2023-05-19T16:03:32.997Z,2.15
2023-05-19T16:05:59.542Z,2.28
2023-05-19T16:08:28.970Z,2.25
2023-05-19T16:10:55.549Z,2.08
2023-05-19T16:13:23.762Z,2.65
2023-05-19T16:15:54.735Z,2.13
2023-05-19T16:18:21.390Z,2.28
2023-05-19T16:20:47.858Z,2.08
2023-05-19T16:23:16.000Z,1.67
2023-05-19T16:25:44.615Z,2.58
2023-05-19T16:28:11.268Z,2.58
2023-05-19T16:30:38.002Z,2.20
2023-05-19T16:33:04.836Z,2.55
2023-05-19T16:35:32.094Z,2.13
2023-05-19T16:37:58.604Z,2.72
2023-05-19T16:40:30.144Z,2.78
2023-05-19T16:42:57.426Z,2.10
2023-05-19T16:45:23.971Z,2.80
2023-05-19T16:47:54.154Z,2.50
2023-05-19T16:50:20.726Z,1.90
2023-05-19T16:52:47.238Z,3.17
2023-05-19T16:55:19.378Z,2.35
2023-05-19T16:57:48.829Z,2.08
2023-05-19T17:00:15.874Z,2.40
2023-05-19T17:02:42.577Z,2.55
2023-05-19T17:05:09.460Z,2.22
2023-05-19T17:07:35.987Z,2.85
2023-05-19T17:10:06.018Z,3.05
2023-05-19T17:12:32.778Z,2.58
2023-05-19T17:14:59.275Z,2.38
2023-05-19T17:17:25.817Z,3.08
2023-05-19T17:19:52.330Z,3.47
2023-05-19T17:22:19.185Z,2.88
2023-05-19T17:24:48.216Z,3.05
2023-05-19T17:27:15.080Z,3.50
2023-05-19T17:29:41.652Z,2.40
2023-05-19T17:32:08.237Z,3.05
2023-05-19T17:34:36.053Z,2.92
2023-05-19T17:37:02.570Z,2.65
2023-05-19T17:39:29.651Z,3.70
2023-05-19T17:41:56.336Z,4.00
2023-05-19T17:44:23.445Z,3.10
2023-05-19T17:46:50.063Z,4.03
2023-05-19T17:49:16.884Z,3.90
2023-05-19T17:51:43.633Z,3.15
2023-05-19T17:54:10.299Z,3.05
2023-05-19T17:56:42.276Z,2.70
2023-05-19T17:59:09.105Z,3.17
2023-05-19T18:01:35.957Z,3.70
2023-05-19T18:04:09.168Z,2.67
2023-05-19T18:06:40.572Z,3.45
2023-05-19T18:09:10.869Z,2.72
2023-05-19T18:11:37.433Z,3.67
2023-05-19T18:14:03.884Z,3.33
2023-05-19T18:16:30.454Z,5.05
2023-05-19T18:18:57.048Z,3.90
2023-05-19T18:21:24.541Z,3.30
2023-05-19T18:23:51.482Z,3.75
2023-05-19T18:26:17.970Z,4.20
2023-05-19T18:28:45.790Z,3.85
2023-05-19T18:31:19.002Z,2.70
2023-05-19T18:33:47.075Z,2.92
2023-05-19T18:36:16.298Z,3.10
2023-05-19T18:38:44.716Z,3.00
2023-05-19T18:41:13.556Z,3.47
2023-05-19T18:43:40.257Z,3.33
2023-05-19T18:46:06.848Z,3.40
2023-05-19T18:48:33.363Z,3.88
2023-05-19T18:51:00.180Z,3.50
2023-05-19T18:53:26.726Z,2.50
2023-05-19T18:55:53.171Z,2.42
2023-05-19T18:58:19.661Z,3.38
2023-05-19T19:00:49.113Z,3.38
2023-05-19T19:03:15.846Z,2.75
2023-05-19T19:05:43.586Z,3.08
2023-05-19T19:08:10.162Z,2.50
2023-05-19T19:10:39.076Z,2.90
2023-05-19T19:13:06.029Z,2.58
2023-05-19T19:15:32.569Z,2.97
2023-05-19T19:17:59.178Z,3.08
2023-05-19T19:20:25.792Z,2.70
2023-05-19T19:22:52.849Z,2.53
2023-05-19T19:25:23.083Z,2.65
2023-05-19T19:27:52.773Z,3.10
2023-05-19T19:30:19.422Z,2.75
2023-05-19T19:32:45.999Z,3.38
2023-05-19T19:35:12.634Z,3.00
2023-05-19T19:37:39.059Z,3.55
2023-05-19T19:40:06.481Z,3.00
2023-05-19T19:42:35.532Z,3.22
2023-05-19T19:45:02.049Z,3.25
2023-05-19T19:47:28.572Z,4.03
2023-05-19T19:49:55.930Z,3.17
2023-05-19T19:52:22.420Z,2.50
2023-05-19T19:54:49.030Z,3.60
2023-05-19T19:57:17.223Z,3.40
2023-05-19T19:59:43.775Z,3.65
2023-05-19T20:02:10.459Z,3.03
2023-05-19T20:04:38.378Z,3.60
2023-05-19T20:07:05.064Z,3.35
2023-05-19T20:09:31.606Z,4.15
2023-05-19T20:11:58.164Z,3.42
2023-05-19T20:14:26.485Z,3.17
2023-05-19T20:16:53.015Z,3.10
2023-05-19T20:19:20.494Z,3.72
2023-05-19T20:21:46.951Z,3.33
2023-05-19T20:24:13.492Z,4.88
2023-05-19T20:26:40.045Z,3.53
2023-05-19T20:29:06.565Z,3.70
2023-05-19T20:31:33.010Z,2.80
2023-05-19T20:34:02.199Z,3.80
2023-05-19T20:36:28.710Z,3.40
2023-05-19T20:38:55.212Z,3.92
2023-05-19T20:41:22.461Z,2.92
2023-05-19T20:43:52.203Z,3.65
2023-05-19T20:46:18.726Z,3.92
2023-05-19T20:48:45.385Z,3.05
2023-05-19T20:51:11.861Z,3.65
2023-05-19T20:53:38.490Z,3.88
2023-05-19T20:56:06.822Z,3.33
2023-05-19T20:58:33.361Z,3.72
2023-05-19T21:00:59.937Z,3.65
2023-05-19T21:03:27.231Z,2.60
2023-05-19T21:05:54.890Z,2.85
2023-05-19T21:08:21.475Z,3.08
2023-05-19T21:10:48.387Z,3.80
2023-05-19T21:13:15.028Z,3.05
2023-05-19T21:15:47.006Z,3.38
2023-05-19T21:18:13.436Z,2.88
2023-05-19T21:20:39.959Z,3.25
2023-05-19T21:23:06.471Z,3.20
2023-05-19T21:25:32.980Z,3.22
2023-05-19T21:27:59.625Z,3.58
2023-05-19T21:30:26.171Z,2.67
2023-05-19T21:32:52.745Z,3.13
2023-05-19T21:35:19.331Z,3.38
2023-05-19T21:37:46.925Z,2.47
2023-05-19T21:40:13.428Z,3.30
2023-05-19T21:42:39.870Z,2.80
2023-05-19T21:45:06.938Z,2.95
2023-05-19T21:47:33.437Z,3.50
2023-05-19T21:49:59.868Z,2.60
2023-05-19T21:52:26.483Z,3.10
2023-05-19T21:54:55.473Z,3.35
2023-05-19T21:57:21.972Z,3.22
2023-05-19T21:59:48.567Z,3.40
2023-05-19T22:02:15.622Z,2.97
2023-05-19T22:04:42.867Z,2.70
2023-05-19T22:07:09.329Z,3.05
2023-05-19T22:09:35.928Z,3.35
2023-05-19T22:12:02.436Z,3.03
2023-05-19T22:14:29.014Z,3.58
2023-05-19T22:16:55.614Z,3.20
2023-05-19T22:19:22.136Z,3.00
2023-05-19T22:21:50.407Z,21.80
2023-05-19T22:24:23.221Z,6.15
2023-05-19T22:26:49.736Z,4.20
2023-05-19T22:29:18.438Z,8.15
2023-05-19T22:31:47.457Z,3.13
2023-05-19T22:34:16.661Z,3.15
2023-05-19T22:36:45.908Z,3.58
2023-05-19T22:39:15.289Z,3.10
2023-05-19T22:41:42.024Z,3.20
2023-05-19T22:44:10.368Z,2.95
2023-05-19T22:46:37.131Z,3.40
2023-05-19T22:49:03.653Z,3.72
2023-05-19T22:51:30.198Z,2.92
2023-05-19T22:53:56.688Z,3.30
2023-05-19T22:56:23.230Z,3.63
2023-05-19T22:58:49.769Z,3.42
2023-05-19T23:01:17.074Z,3.17
2023-05-19T23:03:46.229Z,3.20
2023-05-19T23:06:12.782Z,4.15
2023-05-19T23:08:39.549Z,2.78
2023-05-19T23:11:05.958Z,3.08
2023-05-19T23:13:32.454Z,2.92
2023-05-19T23:15:58.943Z,3.45
2023-05-19T23:18:25.485Z,3.60
2023-05-19T23:20:52.865Z,3.10
2023-05-19T23:23:19.484Z,2.70
2023-05-19T23:25:46.288Z,3.70
2023-05-19T23:28:12.742Z,3.38
2023-05-19T23:30:39.416Z,3.03
2023-05-19T23:33:07.213Z,3.45
2023-05-19T23:35:34.100Z,3.40
2023-05-19T23:38:00.989Z,3.80
2023-05-19T23:40:27.516Z,3.53
2023-05-19T23:42:54.060Z,3.42
2023-05-19T23:45:20.605Z,3.30
2023-05-19T23:47:47.018Z,3.10
2023-05-19T23:50:13.566Z,3.08
2023-05-19T23:52:40.133Z,3.60
2023-05-19T23:55:07.422Z,4.20
2023-05-19T23:57:33.892Z,3.88
